Time;durP1;ratioP1;P1;durP2;ratioP2;P2;SDS_P1;SDS_P2;PMS_P1;PMS_P2;Temp;Humidity;BMP_temperature;BMP_pressure;BME280_temperature;BME280_humidity;BME280_pressure;Samples;Min_cycle;Max_cycle;Signal;HPM_P1;HPM_P2
2023/02/10 00:02:00;;;;;;;23.13;13.67;;;2.20;99.90;;;;;;5063795;28;20458;-69
2023/02/10 00:04:27;;;;;;;19.73;13.90;;;2.20;99.90;;;;;;5063417;28;20458;-71
2023/02/10 00:06:54;;;;;;;22.63;14.67;;;2.20;99.90;;;;;;5064230;28;20487;-71
2023/02/10 00:09:21;;;;;;;23.03;13.80;;;2.20;99.90;;;;;;5062485;28;21015;-71
2023/02/10 00:11:57;;;;;;;20.93;14.00;;;2.20;99.90;;;;;;5062883;28;20490;-70
2023/02/10 00:14:24;;;;;;;22.50;13.93;;;2.20;99.90;;;;;;5062474;28;20475;-69
2023/02/10 00:16:52;;;;;;;23.53;13.40;;;2.20;99.90;;;;;;5063009;28;20786;-71
2023/02/10 00:19:22;;;;;;;19.03;12.60;;;2.20;99.90;;;;;;5064015;28;20554;-70
2023/02/10 00:21:49;;;;;;;22.43;13.77;;;2.10;99.90;;;;;;5062840;28;20459;-70
2023/02/10 00:24:16;;;;;;;21.10;13.93;;;2.10;99.90;;;;;;5061699;28;20454;-70
2023/02/10 00:26:43;;;;;;;20.03;13.10;;;2.10;99.90;;;;;;5062346;28;20538;-70
2023/02/10 00:29:10;;;;;;;19.87;13.23;;;2.10;99.90;;;;;;5062046;28;20478;-71
2023/02/10 00:31:37;;;;;;;24.90;15.30;;;2.10;99.90;;;;;;5061221;28;20532;-70
2023/02/10 00:34:04;;;;;;;19.20;13.47;;;2.10;99.90;;;;;;5061820;28;20455;-71
2023/02/10 00:36:32;;;;;;;22.93;14.00;;;2.10;99.90;;;;;;5061693;28;20550;-71
2023/02/10 00:38:59;;;;;;;21.80;13.73;;;2.10;99.90;;;;;;5062506;28;20489;-71
2023/02/10 00:41:26;;;;;;;19.37;14.20;;;2.10;99.90;;;;;;5063561;28;20489;-71
2023/02/10 00:43:53;;;;;;;20.60;13.77;;;2.10;99.90;;;;;;5064426;28;20479;-71
2023/02/10 00:46:22;;;;;;;22.87;13.50;;;2.10;99.90;;;;;;5063456;28;20486;-71
2023/02/10 00:48:49;;;;;;;27.00;14.63;;;2.10;99.90;;;;;;5065715;28;20570;-71
2023/02/10 00:51:17;;;;;;;25.00;14.90;;;2.20;99.90;;;;;;5064153;28;20514;-70
2023/02/10 00:53:48;;;;;;;22.30;14.43;;;2.20;99.90;;;;;;5063921;28;20463;-72
2023/02/10 00:56:14;;;;;;;20.93;13.90;;;2.20;99.90;;;;;;5064990;28;20496;-69
2023/02/10 00:58:41;;;;;;;21.70;13.37;;;2.20;99.90;;;;;;5064533;28;20464;-71
2023/02/10 01:01:08;;;;;;;24.20;13.80;;;2.20;99.90;;;;;;5064903;28;20490;-70
2023/02/10 01:03:35;;;;;;;19.03;13.37;;;2.20;99.90;;;;;;5064014;28;20466;-71
2023/02/10 01:06:02;;;;;;;21.10;13.93;;;2.20;99.90;;;;;;5065042;28;20494;-71
2023/02/10 01:08:29;;;;;;;21.00;14.47;;;2.30;99.90;;;;;;5063740;28;20562;-71
2023/02/10 01:11:03;;;;;;;19.33;13.97;;;2.20;99.90;;;;;;5061431;28;20462;-70
2023/02/10 01:13:30;;;;;;;25.73;16.23;;;2.20;99.90;;;;;;5064329;28;20486;-71
2023/02/10 01:15:57;;;;;;;26.73;14.70;;;2.20;99.90;;;;;;5063290;28;20465;-70
2023/02/10 01:18:24;;;;;;;21.97;13.43;;;2.10;99.90;;;;;;5063892;28;20451;-70
2023/02/10 01:20:51;;;;;;;23.47;14.90;;;2.10;99.90;;;;;;5061344;28;20483;-70
2023/02/10 01:23:18;;;;;;;24.60;15.53;;;2.10;99.90;;;;;;5062529;28;20550;-70
2023/02/10 01:25:45;;;;;;;21.63;14.33;;;2.10;99.90;;;;;;5061402;28;20550;-71
2023/02/10 01:28:13;;;;;;;20.83;13.63;;;2.10;99.90;;;;;;5061597;28;20566;-71
2023/02/10 01:30:40;;;;;;;25.33;15.20;;;2.00;99.90;;;;;;5064100;28;20880;-70
2023/02/10 01:33:07;;;;;;;22.63;15.53;;;2.00;99.90;;;;;;5063419;28;20519;-70
2023/02/10 01:35:37;;;;;;;27.67;15.83;;;2.00;99.90;;;;;;5062254;28;20487;-70
2023/02/10 01:38:04;;;;;;;25.13;14.80;;;1.90;99.90;;;;;;5064225;28;20484;-72
2023/02/10 01:40:31;;;;;;;23.50;15.30;;;1.90;99.90;;;;;;5061551;28;20943;-71
2023/02/10 01:42:58;;;;;;;24.07;14.77;;;1.90;99.90;;;;;;5063420;28;20459;-72
2023/02/10 01:45:29;;;;;;;23.40;15.47;;;1.90;99.90;;;;;;5062949;28;20526;-72
2023/02/10 01:47:57;;;;;;;23.30;14.80;;;1.80;99.90;;;;;;5064313;28;20776;-71
2023/02/10 01:50:28;;;;;;;19.43;13.50;;;1.90;99.90;;;;;;5062988;28;20935;-71
2023/02/10 01:52:57;;;;;;;24.57;16.50;;;1.90;99.90;;;;;;5062991;28;20518;-70
2023/02/10 01:55:28;;;;;;;24.27;15.30;;;1.80;99.90;;;;;;5061853;28;20490;-71
2023/02/10 01:57:56;;;;;;;21.30;14.00;;;1.90;99.90;;;;;;5061846;28;20439;-70
2023/02/10 02:00:24;;;;;;;22.77;14.97;;;1.80;99.90;;;;;;5062342;28;20459;-70
2023/02/10 02:02:54;;;;;;;26.47;15.07;;;1.80;99.90;;;;;;5062750;28;20482;-71
2023/02/10 02:05:31;;;;;;;25.23;15.70;;;1.80;99.90;;;;;;5061523;28;20554;-70
2023/02/10 02:08:02;;;;;;;26.33;15.47;;;1.80;99.90;;;;;;5062919;28;20522;-71
2023/02/10 02:10:40;;;;;;;24.37;15.70;;;1.80;99.90;;;;;;5063229;28;20454;-71
2023/02/10 02:13:13;;;;;;;27.00;15.47;;;1.80;99.90;;;;;;5061639;28;20447;-71
2023/02/10 02:15:47;;;;;;;23.40;15.93;;;1.80;99.90;;;;;;5061004;28;20468;-71
2023/02/10 02:18:22;;;;;;;32.77;17.27;;;1.80;99.90;;;;;;5061113;28;20531;-71
2023/02/10 02:21:15;;;;;;;25.07;15.43;;;1.70;99.90;;;;;;5060570;28;20568;-70
2023/02/10 02:23:56;;;;;;;22.97;15.73;;;1.70;99.90;;;;;;5059522;28;20503;-71
2023/02/10 02:26:45;;;;;;;26.90;15.80;;;1.70;99.90;;;;;;5060271;28;20924;-70
2023/02/10 02:29:34;;;;;;;25.50;15.70;;;1.70;99.90;;;;;;5060094;28;20546;-71
2023/02/10 02:32:07;;;;;;;23.97;16.90;;;1.70;99.90;;;;;;5059130;28;20526;-70
2023/02/10 02:34:39;;;;;;;28.00;18.17;;;1.70;99.90;;;;;;5059711;28;20530;-71
2023/02/10 02:37:12;;;;;;;33.43;17.40;;;1.70;99.90;;;;;;5055972;28;20439;-70
2023/02/10 02:39:39;;;;;;;27.57;17.60;;;1.70;99.90;;;;;;5057497;28;20567;-71
2023/02/10 02:42:27;;;;;;;29.53;17.20;;;1.70;99.90;;;;;;5056946;28;21003;-71
2023/02/10 02:44:58;;;;;;;28.30;16.87;;;1.70;99.90;;;;;;5052524;28;20486;-71
2023/02/10 02:47:47;;;;;;;29.67;18.27;;;1.70;99.90;;;;;;5056778;28;20507;-69
2023/02/10 02:50:24;;;;;;;27.80;17.33;;;1.70;99.90;;;;;;5058190;28;20767;-71
2023/02/10 02:53:05;;;;;;;31.53;16.80;;;1.70;99.90;;;;;;5062468;28;20424;-70
2023/02/10 02:55:41;;;;;;;30.70;17.83;;;1.80;99.90;;;;;;5061327;28;20446;-71
2023/02/10 02:58:16;;;;;;;24.80;16.77;;;1.80;99.90;;;;;;5057012;28;20478;-71
2023/02/10 03:00:45;;;;;;;30.37;17.13;;;1.80;99.90;;;;;;5057073;28;20485;-71
2023/02/10 03:03:13;;;;;;;27.90;17.97;;;1.80;99.90;;;;;;5057240;28;20451;-71
2023/02/10 03:05:41;;;;;;;26.23;18.07;;;1.70;99.90;;;;;;5056862;28;20534;-70
2023/02/10 03:08:08;;;;;;;31.60;18.37;;;1.80;99.90;;;;;;5056169;28;20582;-71
2023/02/10 03:10:35;;;;;;;30.57;19.60;;;1.80;99.90;;;;;;5056199;28;20550;-71
2023/02/10 03:13:02;;;;;;;34.43;20.57;;;1.80;99.90;;;;;;5056479;28;20491;-71
2023/02/10 03:15:30;;;;;;;30.63;19.87;;;1.80;99.90;;;;;;5056655;28;20888;-70
2023/02/10 03:17:57;;;;;;;30.43;19.90;;;1.80;99.90;;;;;;5055807;28;20939;-71
2023/02/10 03:20:25;;;;;;;42.30;21.53;;;1.80;99.90;;;;;;5059248;28;20455;-70
2023/02/10 03:22:52;;;;;;;33.50;19.30;;;1.80;99.90;;;;;;5059868;28;20460;-72
2023/02/10 03:25:19;;;;;;;28.87;19.13;;;1.80;99.90;;;;;;5060922;28;20550;-72
2023/02/10 03:27:46;;;;;;;28.97;19.47;;;1.80;99.90;;;;;;5060194;28;20525;-72
2023/02/10 03:30:13;;;;;;;33.47;19.63;;;1.80;99.90;;;;;;5058689;28;20574;-71
2023/02/10 03:32:40;;;;;;;37.87;20.33;;;1.90;99.90;;;;;;5058043;28;20561;-70
2023/02/10 03:35:07;;;;;;;37.00;19.87;;;1.90;99.90;;;;;;5059871;28;20487;-70
2023/02/10 03:37:35;;;;;;;29.30;19.43;;;1.90;99.90;;;;;;5060554;28;20501;-70
2023/02/10 03:40:02;;;;;;;37.10;21.67;;;1.90;99.90;;;;;;5059545;28;20843;-70
2023/02/10 03:42:29;;;;;;;38.27;20.20;;;1.90;99.90;;;;;;5060472;28;20459;-71
2023/02/10 03:44:56;;;;;;;33.67;21.53;;;1.90;99.90;;;;;;5061270;28;20570;-71
2023/02/10 03:47:23;;;;;;;36.80;23.20;;;1.90;99.90;;;;;;5060997;28;21007;-71
2023/02/10 03:49:49;;;;;;;33.30;19.83;;;1.90;99.90;;;;;;5061720;28;20505;-70
2023/02/10 03:52:16;;;;;;;39.00;23.03;;;1.90;99.90;;;;;;5062167;28;20458;-70
2023/02/10 03:54:45;;;;;;;39.77;23.13;;;1.90;99.90;;;;;;5062844;28;20494;-70
2023/02/10 03:57:12;;;;;;;41.20;23.07;;;1.90;99.90;;;;;;5060078;28;20786;-70
2023/02/10 03:59:39;;;;;;;37.40;25.20;;;1.90;99.90;;;;;;5060981;28;20489;-70
2023/02/10 04:02:06;;;;;;;35.10;23.60;;;1.90;99.90;;;;;;5063206;28;20534;-70
2023/02/10 04:04:33;;;;;;;38.20;24.23;;;1.90;99.90;;;;;;5064018;28;20455;-70
2023/02/10 04:07:01;;;;;;;42.10;24.00;;;1.90;99.90;;;;;;5062614;28;20455;-69
2023/02/10 04:09:28;;;;;;;37.87;23.70;;;1.90;99.90;;;;;;5062053;28;20570;-70
2023/02/10 04:11:56;;;;;;;42.93;25.20;;;1.90;99.90;;;;;;5061742;28;20466;-71
2023/02/10 04:14:23;;;;;;;44.70;25.73;;;1.90;99.90;;;;;;5061801;28;20459;-72
2023/02/10 04:16:50;;;;;;;45.90;24.20;;;2.00;99.90;;;;;;5060669;28;20838;-70
2023/02/10 04:19:17;;;;;;;40.07;23.97;;;1.90;99.90;;;;;;5060477;28;20569;-70
2023/02/10 04:21:44;;;;;;;37.60;23.10;;;2.00;99.90;;;;;;5065374;28;20459;-69
2023/02/10 04:24:11;;;;;;;38.27;23.60;;;2.00;99.90;;;;;;5064670;28;20470;-69
2023/02/10 04:26:38;;;;;;;41.30;21.97;;;2.00;99.90;;;;;;5065117;28;20538;-70
2023/02/10 04:29:06;;;;;;;41.97;22.37;;;2.10;99.90;;;;;;5063927;28;20537;-71
2023/02/10 04:31:33;;;;;;;38.37;22.57;;;2.10;99.90;;;;;;5062506;28;20537;-71
2023/02/10 04:34:00;;;;;;;37.87;22.07;;;2.10;99.90;;;;;;5063147;28;20848;-70
2023/02/10 04:36:27;;;;;;;53.30;24.40;;;2.10;99.90;;;;;;5063434;28;20474;-71
2023/02/10 04:38:54;;;;;;;43.97;22.00;;;2.10;99.90;;;;;;5062981;28;20490;-71
2023/02/10 04:41:21;;;;;;;49.30;24.93;;;2.10;99.90;;;;;;5064202;28;20482;-71
2023/02/10 04:43:48;;;;;;;46.23;25.10;;;2.20;99.90;;;;;;5064267;28;20491;-71
2023/02/10 04:46:16;;;;;;;44.63;25.10;;;2.10;99.90;;;;;;5065286;28;20525;-70
2023/02/10 04:48:43;;;;;;;41.30;25.57;;;2.10;99.90;;;;;;5066282;28;20554;-70
2023/02/10 04:51:10;;;;;;;44.00;26.30;;;2.10;99.90;;;;;;5065687;28;20530;-70
2023/02/10 04:53:37;;;;;;;42.40;24.33;;;2.00;99.90;;;;;;5065135;28;20500;-71
2023/02/10 04:56:05;;;;;;;45.57;23.43;;;2.00;99.90;;;;;;5064980;28;20538;-70
2023/02/10 04:58:32;;;;;;;37.13;24.00;;;2.00;99.90;;;;;;5065559;28;20483;-71
2023/02/10 05:00:59;;;;;;;52.03;25.07;;;2.10;99.90;;;;;;5065332;28;20509;-70
2023/02/10 05:03:27;;;;;;;50.00;26.10;;;2.10;99.90;;;;;;5066650;28;20917;-70
2023/02/10 05:05:54;;;;;;;49.03;27.60;;;2.00;99.90;;;;;;5065397;28;20530;-70
2023/02/10 05:08:23;;;;;;;54.30;28.00;;;2.10;99.90;;;;;;5065547;28;20538;-70
2023/02/10 05:10:50;;;;;;;53.67;28.10;;;2.10;99.90;;;;;;5065997;28;20482;-70
2023/02/10 05:13:17;;;;;;;53.10;27.73;;;2.10;99.90;;;;;;5067263;28;20475;-71
2023/02/10 05:15:44;;;;;;;51.07;29.80;;;2.00;99.90;;;;;;5066932;28;20456;-71
2023/02/10 05:18:11;;;;;;;48.43;28.63;;;2.00;99.90;;;;;;5065775;28;20915;-71
2023/02/10 05:20:40;;;;;;;54.27;29.60;;;2.10;99.90;;;;;;5064390;28;20488;-70
2023/02/10 05:23:07;;;;;;;53.63;29.80;;;2.10;99.90;;;;;;5063962;28;20526;-70
2023/02/10 05:25:33;;;;;;;51.93;28.40;;;2.10;99.90;;;;;;5066232;28;20613;-70
2023/02/10 05:28:00;;;;;;;54.23;28.63;;;2.10;99.90;;;;;;5067150;28;20592;-71
2023/02/10 05:30:27;;;;;;;46.80;28.83;;;2.10;99.90;;;;;;5067319;28;20559;-72
2023/02/10 05:32:54;;;;;;;51.17;30.70;;;2.10;99.90;;;;;;5067692;28;20497;-71
2023/02/10 05:35:21;;;;;;;54.03;30.53;;;2.00;99.90;;;;;;5068544;28;20451;-70
2023/02/10 05:37:49;;;;;;;49.60;29.07;;;2.00;99.90;;;;;;5067669;28;20477;-70
2023/02/10 05:40:16;;;;;;;54.57;32.30;;;2.00;99.90;;;;;;5065100;28;20522;-71
2023/02/10 05:42:43;;;;;;;52.47;30.37;;;2.00;99.90;;;;;;5066435;28;20546;-71
2023/02/10 05:45:10;;;;;;;61.37;33.07;;;1.90;99.90;;;;;;5067218;28;20514;-70
2023/02/10 05:47:37;;;;;;;65.07;33.00;;;1.90;99.90;;;;;;5065693;28;20475;-70
2023/02/10 05:50:04;;;;;;;55.37;33.93;;;1.90;99.90;;;;;;5067466;28;20474;-70
2023/02/10 05:52:31;;;;;;;59.57;32.00;;;1.90;99.90;;;;;;5065735;28;20491;-70
2023/02/10 05:54:59;;;;;;;55.80;32.50;;;1.90;99.90;;;;;;5065985;28;20540;-70
2023/02/10 05:57:26;;;;;;;50.50;29.40;;;1.90;99.90;;;;;;5065467;28;20455;-71
2023/02/10 05:59:53;;;;;;;53.43;31.13;;;1.90;99.90;;;;;;5066049;28;20490;-70
2023/02/10 06:02:35;;;;;;;52.70;32.47;;;1.90;99.90;;;;;;5066088;28;20501;-73
2023/02/10 06:05:02;;;;;;;54.47;32.27;;;1.90;99.90;;;;;;5066851;28;20493;-71
2023/02/10 06:07:29;;;;;;;56.80;31.63;;;1.90;99.90;;;;;;5066261;28;20784;-70
2023/02/10 06:09:56;;;;;;;51.10;30.20;;;1.80;99.90;;;;;;5067060;28;20506;-70
2023/02/10 06:12:24;;;;;;;61.53;32.30;;;1.80;99.90;;;;;;5066449;28;20470;-70
2023/02/10 06:14:51;;;;;;;51.87;32.00;;;1.80;99.90;;;;;;5065772;28;20451;-70
2023/02/10 06:17:18;;;;;;;47.87;31.03;;;1.80;99.90;;;;;;5066670;28;20455;-71
2023/02/10 06:19:45;;;;;;;58.63;29.87;;;1.90;99.90;;;;;;5067724;28;20461;-70
2023/02/10 06:22:12;;;;;;;55.03;29.10;;;1.80;99.90;;;;;;5065917;28;20517;-70
2023/02/10 06:24:41;;;;;;;60.60;29.63;;;1.90;99.90;;;;;;5064814;28;20487;-71
2023/02/10 06:27:08;;;;;;;44.77;27.90;;;1.90;99.90;;;;;;5064660;28;20479;-71
2023/02/10 06:29:36;;;;;;;66.57;32.50;;;1.80;99.90;;;;;;5064426;28;20506;-69
2023/02/10 06:32:03;;;;;;;54.37;31.87;;;1.80;99.90;;;;;;5065659;28;20459;-71
2023/02/10 06:34:30;;;;;;;46.67;28.93;;;1.80;99.90;;;;;;5065417;28;20462;-70
2023/02/10 06:36:57;;;;;;;52.57;30.40;;;1.80;99.90;;;;;;5077735;28;20807;-71
2023/02/10 06:39:24;;;;;;;54.87;28.03;;;1.80;99.90;;;;;;5085404;28;20461;-71
2023/02/10 06:41:51;;;;;;;51.57;27.97;;;1.90;99.90;;;;;;5077725;28;20528;-72
2023/02/10 06:44:18;;;;;;;51.90;29.40;;;1.90;99.90;;;;;;5075640;28;20991;-71
2023/02/10 06:46:46;;;;;;;54.40;31.13;;;1.90;99.90;;;;;;5075407;28;20454;-70
2023/02/10 06:49:13;;;;;;;51.13;28.40;;;1.90;99.90;;;;;;5075591;28;20490;-71
2023/02/10 06:51:46;;;;;;;56.10;28.83;;;1.90;99.90;;;;;;5075503;28;20541;-70
2023/02/10 06:54:12;;;;;;;47.40;27.00;;;1.90;99.90;;;;;;5075341;28;20485;-71
2023/02/10 06:56:41;;;;;;;58.40;26.27;;;2.00;99.90;;;;;;5075586;28;20536;-71
2023/02/10 06:59:08;;;;;;;53.20;26.60;;;2.00;99.90;;;;;;5075654;28;20459;-71
2023/02/10 07:01:35;;;;;;;52.00;29.50;;;2.00;99.90;;;;;;5057985;28;20493;-70
2023/02/10 07:04:03;;;;;;;52.33;27.00;;;2.00;99.90;;;;;;5055236;28;20465;-71
2023/02/10 07:06:30;;;;;;;54.50;27.83;;;2.00;99.90;;;;;;5055633;28;20833;-70
2023/02/10 07:08:57;;;;;;;51.67;26.27;;;2.10;99.90;;;;;;5055809;28;20467;-71
2023/02/10 07:11:23;;;;;;;51.43;29.13;;;2.10;99.90;;;;;;5055035;28;21049;-71
2023/02/10 07:13:50;;;;;;;46.23;26.27;;;2.10;99.90;;;;;;5055447;28;20465;-70
2023/02/10 07:16:17;;;;;;;49.60;25.47;;;2.20;99.90;;;;;;5055895;28;20462;-71
2023/02/10 07:18:44;;;;;;;54.67;29.73;;;2.20;99.90;;;;;;5055122;28;20929;-71
2023/02/10 07:21:12;;;;;;;46.80;27.00;;;2.20;99.90;;;;;;5055517;28;20920;-71
2023/02/10 07:23:39;;;;;;;44.63;26.47;;;2.30;99.90;;;;;;5055050;28;20934;-71
2023/02/10 07:26:06;;;;;;;48.90;26.50;;;2.30;99.90;;;;;;5054754;28;20915;-71
2023/02/10 07:28:34;;;;;;;44.97;27.60;;;2.30;99.90;;;;;;5055073;28;20452;-70
2023/02/10 07:31:01;;;;;;;48.53;26.23;;;2.40;99.90;;;;;;5054984;28;20570;-70
2023/02/10 07:33:28;;;;;;;45.10;26.83;;;2.40;99.90;;;;;;5055109;28;20491;-70
2023/02/10 07:35:55;;;;;;;51.60;27.00;;;2.50;99.90;;;;;;5055466;28;20459;-70
2023/02/10 07:38:23;;;;;;;48.47;25.10;;;2.50;99.90;;;;;;5055082;28;20459;-71
2023/02/10 07:40:50;;;;;;;50.97;27.43;;;2.50;99.90;;;;;;5054934;28;20489;-70
2023/02/10 07:43:17;;;;;;;46.63;27.43;;;2.50;99.90;;;;;;5054976;28;20493;-70
2023/02/10 07:45:44;;;;;;;47.70;28.30;;;2.60;99.90;;;;;;5055170;28;20444;-70
2023/02/10 07:48:11;;;;;;;48.30;28.93;;;2.60;99.90;;;;;;5054928;28;20522;-70
2023/02/10 07:50:37;;;;;;;47.70;26.93;;;2.60;99.90;;;;;;5054916;28;20536;-72
2023/02/10 07:53:04;;;;;;;55.67;31.33;;;2.60;99.90;;;;;;5055168;28;20833;-71
2023/02/10 07:55:33;;;;;;;51.87;28.60;;;2.60;99.90;;;;;;5061624;28;20545;-71
2023/02/10 07:58:01;;;;;;;48.30;28.63;;;2.60;99.90;;;;;;5060454;28;20489;-71
2023/02/10 08:00:27;;;;;;;47.67;26.97;;;2.60;99.90;;;;;;5058944;28;20466;-72
2023/02/10 08:02:54;;;;;;;42.17;27.13;;;2.70;99.90;;;;;;5058945;28;20497;-71
2023/02/10 08:05:22;;;;;;;46.20;28.83;;;2.70;99.90;;;;;;5058413;28;20927;-70
2023/02/10 08:07:49;;;;;;;56.90;30.33;;;2.70;99.90;;;;;;5058378;28;20497;-70
2023/02/10 08:10:16;;;;;;;51.60;28.00;;;2.70;99.90;;;;;;5058558;28;20497;-71
2023/02/10 08:12:46;;;;;;;47.27;25.10;;;2.70;99.90;;;;;;5058694;28;20447;-71
2023/02/10 08:15:13;;;;;;;50.60;27.27;;;2.80;99.90;;;;;;5058357;28;20470;-72
2023/02/10 08:17:40;;;;;;;51.77;28.87;;;2.80;99.90;;;;;;5058210;28;20513;-72
2023/02/10 08:20:08;;;;;;;46.47;27.47;;;2.80;99.90;;;;;;5057838;28;20927;-71
2023/02/10 08:22:35;;;;;;;47.53;29.00;;;2.90;99.90;;;;;;5057917;28;20466;-70
2023/02/10 08:25:02;;;;;;;48.00;27.87;;;2.90;99.90;;;;;;5057771;28;20454;-71
2023/02/10 08:27:29;;;;;;;52.30;28.90;;;3.00;99.90;;;;;;5057495;28;20490;-75
2023/02/10 08:29:57;;;;;;;49.23;27.03;;;3.00;99.90;;;;;;5057709;28;20483;-70
2023/02/10 08:32:24;;;;;;;51.43;26.47;;;3.00;99.90;;;;;;5057766;28;20847;-71
2023/02/10 08:34:52;;;;;;;46.83;25.90;;;3.10;99.90;;;;;;5057642;28;20498;-71
2023/02/10 08:37:19;;;;;;;43.77;25.10;;;3.10;99.90;;;;;;5057744;28;20538;-70
2023/02/10 08:39:46;;;;;;;41.30;25.20;;;3.10;99.90;;;;;;5057866;28;20486;-71
2023/02/10 08:42:13;;;;;;;50.67;28.17;;;3.10;99.90;;;;;;5057506;28;20455;-71
2023/02/10 08:44:40;;;;;;;45.27;24.87;;;3.20;99.90;;;;;;5058773;28;20502;-71
2023/02/10 08:47:10;;;;;;;53.60;25.87;;;3.20;99.90;;;;;;5057631;28;20854;-71
2023/02/10 08:49:37;;;;;;;48.17;26.67;;;3.30;99.90;;;;;;5057574;28;20482;-71
2023/02/10 08:52:05;;;;;;;45.03;26.23;;;3.30;99.90;;;;;;5057671;28;20462;-70
2023/02/10 08:54:32;;;;;;;43.37;25.37;;;3.40;99.90;;;;;;5057549;28;20783;-71
2023/02/10 08:56:59;;;;;;;49.43;26.10;;;3.40;99.90;;;;;;5057669;28;20485;-70
2023/02/10 08:59:26;;;;;;;45.67;26.37;;;3.50;99.90;;;;;;5057241;28;20852;-71
2023/02/10 09:01:53;;;;;;;45.43;25.60;;;3.50;99.90;;;;;;5056924;28;20458;-71
2023/02/10 09:04:21;;;;;;;47.10;25.03;;;3.50;99.90;;;;;;5057230;28;20459;-71
2023/02/10 09:06:48;;;;;;;46.73;24.97;;;3.50;99.90;;;;;;5056122;28;20459;-71
2023/02/10 09:09:21;;;;;;;43.67;26.00;;;3.60;99.90;;;;;;5057758;28;20451;-71
2023/02/10 09:11:48;;;;;;;46.83;25.70;;;3.60;99.90;;;;;;5057092;28;20463;-71
2023/02/10 09:14:15;;;;;;;50.30;27.07;;;3.70;99.90;;;;;;5056908;28;20455;-72
2023/02/10 09:16:42;;;;;;;45.27;24.90;;;3.70;99.90;;;;;;5060895;28;20845;-71
2023/02/10 09:19:09;;;;;;;49.23;27.50;;;3.70;99.90;;;;;;5066089;28;20479;-72
2023/02/10 09:21:37;;;;;;;44.67;26.60;;;3.70;99.90;;;;;;5061682;28;20630;-72
2023/02/10 09:24:05;;;;;;;52.90;27.20;;;3.70;99.90;;;;;;5057439;28;20466;-70
2023/02/10 09:26:32;;;;;;;55.43;27.17;;;3.70;99.90;;;;;;5057584;28;20461;-71
2023/02/10 09:28:58;;;;;;;53.10;27.80;;;3.70;99.90;;;;;;5056817;28;20542;-70
2023/02/10 09:31:25;;;;;;;48.27;26.70;;;3.80;99.90;;;;;;5057486;28;20796;-72
2023/02/10 09:33:52;;;;;;;47.77;27.53;;;3.80;99.90;;;;;;5056671;28;20470;-71
2023/02/10 09:36:21;;;;;;;58.70;27.70;;;3.90;99.90;;;;;;5056561;28;20545;-70
2023/02/10 09:38:49;;;;;;;64.10;28.63;;;3.90;99.90;;;;;;5056346;28;20538;-72
2023/02/10 09:41:32;;;;;;;45.87;26.10;;;4.00;99.90;;;;;;5056840;28;20538;-72
2023/02/10 09:44:07;;;;;;;55.00;28.80;;;4.00;99.90;;;;;;5056969;28;20558;-70
2023/02/10 09:46:55;;;;;;;47.50;26.80;;;4.10;99.90;;;;;;5056675;28;20443;-71
2023/02/10 09:50:00;;;;;;;49.90;26.73;;;4.20;99.90;;;;;;5054831;28;20491;-71
2023/02/10 09:52:41;;;;;;;46.90;24.80;;;4.30;99.90;;;;;;5056970;28;20494;-70
2023/02/10 09:55:15;;;;;;;41.57;24.27;;;4.30;99.90;;;;;;5057426;28;20530;-70
2023/02/10 09:57:46;;;;;;;54.80;26.80;;;4.40;99.90;;;;;;5057595;28;20522;-70
2023/02/10 10:00:21;;;;;;;42.73;25.80;;;4.40;99.90;;;;;;5057236;28;20447;-71
2023/02/10 10:02:52;;;;;;;49.63;26.43;;;4.40;99.90;;;;;;5057727;28;20514;-71
2023/02/10 10:05:29;;;;;;;45.03;27.23;;;4.40;99.90;;;;;;5057345;28;20453;-71
2023/02/10 10:07:58;;;;;;;49.20;25.30;;;4.50;99.90;;;;;;5057995;28;20470;-70
2023/02/10 10:10:33;;;;;;;43.53;25.20;;;4.50;99.90;;;;;;5058358;28;20493;-72
2023/02/10 10:12:59;;;;;;;44.50;24.83;;;4.40;99.90;;;;;;5058174;28;20438;-71
2023/02/10 10:15:35;;;;;;;43.80;24.07;;;4.40;99.90;;;;;;5057757;28;20538;-70
2023/02/10 10:18:10;;;;;;;42.57;22.97;;;4.40;99.90;;;;;;5056509;28;20541;-71
2023/02/10 10:20:46;;;;;;;44.47;25.13;;;4.50;99.90;;;;;;5057406;28;20514;-71
2023/02/10 10:23:27;;;;;;;44.50;22.80;;;4.60;99.90;;;;;;5056868;28;20458;-71
2023/02/10 10:26:04;;;;;;;46.27;26.00;;;4.60;99.90;;;;;;5057269;28;20756;-71
2023/02/10 10:28:41;;;;;;;47.30;25.20;;;4.60;99.90;;;;;;5075107;28;20460;-70
2023/02/10 10:31:12;;;;;;;45.97;24.63;;;4.70;99.90;;;;;;5077144;28;20557;-73
2023/02/10 10:33:46;;;;;;;45.40;24.37;;;4.70;99.90;;;;;;5077737;28;20535;-72
2023/02/10 10:36:15;;;;;;;48.60;24.80;;;4.90;99.90;;;;;;5077686;28;20439;-72
2023/02/10 10:38:47;;;;;;;41.90;25.43;;;4.90;99.90;;;;;;5058154;28;20473;-71
2023/02/10 10:41:16;;;;;;;42.80;25.53;;;4.90;99.90;;;;;;5057293;28;20550;-72
2023/02/10 10:43:46;;;;;;;43.40;24.50;;;5.00;99.90;;;;;;5057154;28;21021;-71
2023/02/10 10:46:19;;;;;;;46.43;24.03;;;5.10;99.90;;;;;;5056996;28;20453;-72
2023/02/10 10:48:46;;;;;;;45.90;23.87;;;5.10;99.90;;;;;;5055985;28;20846;-73
2023/02/10 10:51:14;;;;;;;36.53;21.03;;;5.10;99.90;;;;;;5055872;28;20573;-70
2023/02/10 10:53:43;;;;;;;41.97;23.77;;;5.20;99.90;;;;;;5054945;28;20458;-70
2023/02/10 10:56:18;;;;;;;45.13;24.03;;;5.20;99.90;;;;;;5056223;28;20905;-71
2023/02/10 10:58:47;;;;;;;39.67;22.73;;;5.30;99.90;;;;;;5056014;28;20449;-70
2023/02/10 11:01:15;;;;;;;42.90;21.87;;;5.30;99.90;;;;;;5055289;28;20542;-71
2023/02/10 11:03:42;;;;;;;44.10;22.70;;;5.30;99.90;;;;;;5054753;28;20541;-72
2023/02/10 11:06:11;;;;;;;42.33;22.37;;;5.30;99.90;;;;;;5054656;28;20996;-70
2023/02/10 11:08:41;;;;;;;44.77;22.07;;;5.30;99.90;;;;;;5054150;28;20962;-72
2023/02/10 11:11:11;;;;;;;45.47;23.57;;;5.30;99.90;;;;;;5054865;28;20538;-71
2023/02/10 11:13:42;;;;;;;38.97;22.70;;;5.30;99.90;;;;;;5054900;28;20466;-72
2023/02/10 11:16:11;;;;;;;49.03;23.13;;;5.30;99.90;;;;;;5054661;28;20444;-71
2023/02/10 11:18:39;;;;;;;42.77;22.70;;;5.40;99.90;;;;;;5054419;28;20913;-71
2023/02/10 11:21:08;;;;;;;41.40;23.57;;;5.50;99.90;;;;;;5055134;28;20462;-69
2023/02/10 11:23:47;;;;;;;48.57;22.27;;;5.60;99.90;;;;;;5054558;28;20473;-71
2023/02/10 11:26:19;;;;;;;43.33;21.10;;;5.70;99.90;;;;;;5054940;28;20471;-71
2023/02/10 11:28:47;;;;;;;51.93;23.63;;;5.80;99.90;;;;;;5054537;28;20514;-71
2023/02/10 11:31:26;;;;;;;41.47;21.70;;;5.90;99.90;;;;;;5058430;28;20519;-72
2023/02/10 11:33:58;;;;;;;46.83;20.40;;;6.00;99.90;;;;;;5059104;28;20530;-71
2023/02/10 11:36:34;;;;;;;43.30;21.60;;;6.10;99.90;;;;;;5058191;28;20442;-71
2023/02/10 11:39:03;;;;;;;39.87;20.87;;;6.00;99.90;;;;;;5058542;28;20447;-71
2023/02/10 11:41:30;;;;;;;40.80;21.13;;;6.00;99.90;;;;;;5058435;28;20455;-71
2023/02/10 11:43:59;;;;;;;46.93;21.80;;;6.00;99.90;;;;;;5058191;28;20888;-71
2023/02/10 11:46:27;;;;;;;36.03;20.70;;;6.00;99.90;;;;;;5058799;28;20459;-70
2023/02/10 11:48:56;;;;;;;41.87;19.77;;;6.10;99.90;;;;;;5058405;28;20491;-70
2023/02/10 11:51:24;;;;;;;38.47;20.27;;;6.20;99.90;;;;;;5058114;28;20483;-70
2023/02/10 11:53:52;;;;;;;46.77;23.23;;;6.20;99.90;;;;;;5059003;28;20474;-70
2023/02/10 11:58:58;;;;;;;33.73;20.57;;;6.20;99.90;;;;;;5058707;28;20995;-71
2023/02/10 11:59:22;;;;;;;36.40;21.30;;;6.30;99.90;;;;;;5058632;28;20465;-71
2023/02/10 12:01:55;;;;;;;39.57;20.33;;;6.30;99.90;;;;;;5059031;28;20450;-71
2023/02/10 12:04:48;;;;;;;40.03;21.07;;;6.40;99.90;;;;;;5059353;28;20474;-70
2023/02/10 12:07:26;;;;;;;35.00;20.83;;;6.40;99.90;;;;;;5058675;28;20500;-70
2023/02/10 12:09:56;;;;;;;36.50;20.00;;;6.40;99.90;;;;;;5059001;28;20538;-71
2023/02/10 12:12:33;;;;;;;38.87;20.93;;;6.50;99.90;;;;;;5057929;28;20466;-70
2023/02/10 12:15:12;;;;;;;35.70;22.10;;;6.60;99.90;;;;;;5061515;28;20972;-71
2023/02/10 12:17:49;;;;;;;40.23;21.50;;;6.60;99.90;;;;;;5066370;28;20510;-71
2023/02/10 12:20:35;;;;;;;43.37;22.00;;;6.60;99.90;;;;;;5060454;28;20453;-70
2023/02/10 12:23:14;;;;;;;35.40;20.83;;;6.60;99.90;;;;;;5058144;28;20534;-71
2023/02/10 12:25:50;;;;;;;41.87;22.83;;;6.70;99.90;;;;;;5058023;28;20443;-70
2023/02/10 12:28:30;;;;;;;39.87;21.80;;;6.90;99.90;;;;;;5057699;28;20888;-70
2023/02/10 12:31:18;;;;;;;34.73;19.57;;;7.20;99.90;;;;;;5057344;28;20442;-71
2023/02/10 12:34:02;;;;;;;37.93;20.23;;;7.80;99.90;;;;;;5057490;28;20443;-72
2023/02/10 12:36:36;;;;;;;33.50;18.50;;;8.50;99.90;;;;;;5057606;28;20510;-71
2023/02/10 12:39:16;;;;;;;32.53;19.47;;;8.60;99.90;;;;;;5057812;28;20450;-71
2023/02/10 12:41:52;;;;;;;33.80;19.53;;;8.60;99.90;;;;;;5057352;28;20542;-72
2023/02/10 12:44:34;;;;;;;29.77;19.10;;;8.70;99.90;;;;;;5057015;28;20488;-70
2023/02/10 12:47:13;;;;;;;34.03;18.13;;;9.10;99.90;;;;;;5057846;28;20534;-71
2023/02/10 12:49:53;;;;;;;28.10;17.87;;;9.50;99.90;;;;;;5057820;28;20526;-72